Time;durP1;ratioP1;P1;durP2;ratioP2;P2;SDS_P1;SDS_P2;PMS_P1;PMS_P2;Temp;Humidity;BMP_temperature;BMP_pressure;BME280_temperature;BME280_humidity;BME280_pressure;Samples;Min_cycle;Max_cycle;Signal;HPM_P1;HPM_P2
2023/01/04 00:02:09;;;;;;;3.13;1.00;;;9.40;99.90;;;;;;5030522;28;21006;-46
2023/01/04 00:04:38;;;;;;;1.33;0.70;;;9.40;99.90;;;;;;5048009;28;20443;-46
2023/01/04 00:07:06;;;;;;;1.60;0.80;;;9.40;99.90;;;;;;5031461;28;20488;-46
2023/01/04 00:09:35;;;;;;;3.67;0.90;;;9.40;99.90;;;;;;5034110;28;20470;-46
2023/01/04 00:12:04;;;;;;;1.90;0.90;;;9.40;99.90;;;;;;5030567;28;20428;-47
2023/01/04 00:14:32;;;;;;;1.13;0.70;;;9.40;99.90;;;;;;5037164;28;20441;-45
2023/01/04 00:17:01;;;;;;;1.20;0.90;;;9.40;99.90;;;;;;5049007;28;20492;-46
2023/01/04 00:19:31;;;;;;;1.43;1.03;;;9.40;99.90;;;;;;5038033;28;20992;-47
2023/01/04 00:21:59;;;;;;;1.50;0.70;;;9.40;99.90;;;;;;5044848;28;20434;-49
2023/01/04 00:24:28;;;;;;;2.20;0.77;;;9.40;99.90;;;;;;5029125;28;20468;-46
2023/01/04 00:26:56;;;;;;;1.20;0.80;;;9.40;99.90;;;;;;5043006;28;20467;-46
2023/01/04 00:29:25;;;;;;;1.27;0.90;;;9.40;99.90;;;;;;5032100;28;20467;-45
2023/01/04 00:31:53;;;;;;;1.97;1.03;;;9.40;99.90;;;;;;5043041;28;20890;-46
2023/01/04 00:34:22;;;;;;;1.43;0.87;;;9.40;99.90;;;;;;5036089;28;20471;-47
2023/01/04 00:36:52;;;;;;;1.97;1.00;;;9.40;99.90;;;;;;5046079;28;20504;-46
2023/01/04 00:39:21;;;;;;;1.00;0.90;;;9.40;99.90;;;;;;5045866;28;20514;-48
2023/01/04 00:41:52;;;;;;;1.33;0.80;;;9.40;99.90;;;;;;5031164;28;20942;-46
2023/01/04 00:44:30;;;;;;;0.80;0.63;;;9.40;99.90;;;;;;5046349;28;20443;-47
2023/01/04 00:46:59;;;;;;;1.00;0.60;;;9.40;99.90;;;;;;5048100;28;21020;-47
2023/01/04 00:49:28;;;;;;;0.93;0.73;;;9.40;99.90;;;;;;5044812;28;20471;-47
2023/01/04 00:51:58;;;;;;;1.40;0.90;;;9.40;99.90;;;;;;5032569;28;20443;-47
2023/01/04 00:54:29;;;;;;;1.27;0.87;;;9.40;99.90;;;;;;5047292;28;20791;-46
2023/01/04 00:56:58;;;;;;;1.20;0.77;;;9.40;99.90;;;;;;5032545;28;20890;-46
2023/01/04 00:59:27;;;;;;;1.43;0.87;;;9.40;99.90;;;;;;5027947;28;20468;-46
2023/01/04 01:01:56;;;;;;;1.33;0.70;;;9.40;99.90;;;;;;5043663;28;20441;-46
2023/01/04 01:04:25;;;;;;;1.40;1.13;;;9.40;99.90;;;;;;5030810;28;20499;-47
2023/01/04 01:06:53;;;;;;;1.20;0.93;;;9.40;99.90;;;;;;5033347;28;20599;-46
2023/01/04 01:09:23;;;;;;;2.00;1.00;;;9.40;99.90;;;;;;5045573;28;20478;-46
2023/01/04 01:11:52;;;;;;;2.07;0.90;;;9.40;99.90;;;;;;5030835;28;20448;-46
2023/01/04 01:14:23;;;;;;;1.20;0.90;;;9.40;99.90;;;;;;5032127;28;20526;-48
2023/01/04 01:16:52;;;;;;;1.57;1.07;;;9.40;99.90;;;;;;5045916;28;21052;-47
2023/01/04 01:19:25;;;;;;;1.57;1.17;;;9.40;99.90;;;;;;5060667;28;20810;-46
2023/01/04 01:21:55;;;;;;;2.17;0.97;;;9.40;99.90;;;;;;5061126;28;20565;-46
2023/01/04 01:24:26;;;;;;;1.00;0.80;;;9.40;99.90;;;;;;5045068;28;20527;-46
2023/01/04 01:26:55;;;;;;;1.73;1.00;;;9.40;99.90;;;;;;5047005;28;20445;-46
2023/01/04 01:29:24;;;;;;;2.20;0.93;;;9.40;99.90;;;;;;5040942;28;20458;-48
2023/01/04 01:31:54;;;;;;;1.10;0.60;;;9.40;99.90;;;;;;5062680;28;20433;-46
2023/01/04 01:34:22;;;;;;;1.83;0.60;;;9.40;99.90;;;;;;5030697;28;21055;-46
2023/01/04 01:36:51;;;;;;;1.00;0.60;;;9.40;99.90;;;;;;5047820;28;20478;-46
2023/01/04 01:39:20;;;;;;;0.97;0.87;;;9.40;99.90;;;;;;5044584;28;20807;-46
2023/01/04 01:41:50;;;;;;;1.97;0.80;;;9.40;99.90;;;;;;5029981;28;20451;-47
2023/01/04 01:45:01;;;;;;;1.70;0.77;;;9.40;99.90;;;;;;5028508;28;20478;-48
2023/01/04 01:47:37;;;;;;;1.40;0.80;;;9.40;99.90;;;;;;5028097;28;20455;-47
2023/01/04 01:50:16;;;;;;;1.23;0.60;;;9.40;99.90;;;;;;5029797;28;20434;-46
2023/01/04 01:52:45;;;;;;;2.50;1.00;;;9.40;99.90;;;;;;5039401;28;20827;-47
2023/01/04 01:55:15;;;;;;;1.57;0.70;;;9.40;99.90;;;;;;5027745;28;20440;-46
2023/01/04 01:57:49;;;;;;;1.30;0.90;;;9.30;99.90;;;;;;5046344;28;20474;-47
2023/01/04 02:00:19;;;;;;;4.10;1.07;;;9.40;99.90;;;;;;5028562;28;20535;-47
2023/01/04 02:02:57;;;;;;;1.00;0.80;;;9.40;99.90;;;;;;5046028;28;20554;-46
2023/01/04 02:05:28;;;;;;;2.03;0.80;;;9.30;99.90;;;;;;5045030;28;20438;-47
2023/01/04 02:07:56;;;;;;;0.63;0.50;;;9.30;99.90;;;;;;5032231;28;20802;-46
2023/01/04 02:10:25;;;;;;;0.90;0.73;;;9.30;99.90;;;;;;5046282;28;20800;-48
2023/01/04 02:12:55;;;;;;;1.63;0.70;;;9.30;99.90;;;;;;5046714;28;21106;-47
2023/01/04 02:15:27;;;;;;;1.70;1.10;;;9.30;99.90;;;;;;5024695;28;20481;-46
2023/01/04 02:18:06;;;;;;;0.70;0.70;;;9.30;99.90;;;;;;5031271;28;20852;-47
2023/01/04 02:20:44;;;;;;;1.87;0.70;;;9.30;99.90;;;;;;5047057;28;20439;-48
2023/01/04 02:24:01;;;;;;;0.73;0.70;;;9.30;99.90;;;;;;5031336;28;20509;-47
2023/01/04 02:27:17;;;;;;;1.70;0.73;;;9.30;99.90;;;;;;5045787;28;20495;-47
2023/01/04 02:30:22;;;;;;;1.20;0.67;;;9.30;99.90;;;;;;5039646;28;20468;-47
2023/01/04 02:33:07;;;;;;;1.03;0.90;;;9.30;99.90;;;;;;5045703;28;20966;-46
2023/01/04 02:35:44;;;;;;;2.60;0.50;;;9.30;99.90;;;;;;5047622;28;20966;-47
2023/01/04 02:38:22;;;;;;;2.20;0.50;;;9.30;99.90;;;;;;5029232;28;20477;-47
2023/01/04 02:41:00;;;;;;;0.90;0.70;;;9.30;99.90;;;;;;5041575;28;20961;-46
2023/01/04 02:46:26;;;;;;;1.90;0.50;;;9.30;99.90;;;;;;5027698;28;20476;-46
2023/01/04 02:51:45;;;;;;;1.33;0.57;;;9.30;99.90;;;;;;5040005;28;20443;-48
2023/01/04 02:54:17;;;;;;;1.27;0.87;;;9.30;99.90;;;;;;5041853;28;20485;-47
2023/01/04 02:57:00;;;;;;;0.50;0.43;;;9.30;99.90;;;;;;5040512;28;20436;-47
2023/01/04 03:00:09;;;;;;;0.83;0.60;;;9.30;99.90;;;;;;5057671;28;22203;-47
2023/01/04 03:06:16;;;;;;;0.70;0.50;;;9.30;99.90;;;;;;5033483;28;20449;-47
2023/01/04 03:08:56;;;;;;;0.90;0.70;;;9.30;99.90;;;;;;5053798;28;20476;-46
2023/01/04 03:14:20;;;;;;;1.33;0.60;;;9.30;99.90;;;;;;5034914;28;20585;-47
2023/01/04 03:17:02;;;;;;;0.50;0.40;;;9.30;99.90;;;;;;5045709;28;20896;-47
2023/01/04 03:19:53;;;;;;;1.27;0.50;;;9.30;99.90;;;;;;5049865;28;20487;-47
2023/01/04 03:36:51;;;;;;;0.70;0.60;;;9.30;99.90;;;;;;5048906;28;20459;-46
2023/01/04 03:48:29;;;;;;;0.70;0.50;;;9.30;99.90;;;;;;5039016;28;20479;-46
2023/01/04 03:51:05;;;;;;;0.83;0.83;;;9.30;99.90;;;;;;5038950;28;20867;-48
2023/01/04 03:53:39;;;;;;;0.67;0.40;;;9.30;99.90;;;;;;5038125;28;20869;-46
2023/01/04 03:56:11;;;;;;;1.13;0.60;;;9.30;99.90;;;;;;5012990;28;20562;-46
2023/01/04 03:58:40;;;;;;;0.83;0.60;;;9.30;99.90;;;;;;5029973;28;20602;-45
2023/01/04 04:01:09;;;;;;;0.97;0.53;;;9.30;99.90;;;;;;5064294;28;20448;-48
2023/01/04 04:09:09;;;;;;;0.60;0.53;;;9.30;99.90;;;;;;5041958;28;20484;-47
2023/01/04 04:11:39;;;;;;;0.60;0.43;;;9.30;99.90;;;;;;5029766;28;20469;-47
2023/01/04 04:14:08;;;;;;;0.97;0.50;;;9.30;99.90;;;;;;5044287;28;20561;-47
2023/01/04 04:16:36;;;;;;;0.60;0.43;;;9.30;99.90;;;;;;5032522;28;20472;-47
2023/01/04 04:19:08;;;;;;;0.60;0.60;;;9.30;99.90;;;;;;5047223;28;21074;-46
2023/01/04 04:21:37;;;;;;;0.50;0.40;;;9.30;99.90;;;;;;5034802;28;20420;-48
2023/01/04 04:24:06;;;;;;;0.80;0.40;;;9.30;99.90;;;;;;5024604;28;20488;-47
2023/01/04 04:26:35;;;;;;;0.53;0.40;;;9.30;99.90;;;;;;5034174;28;20452;-46
2023/01/04 04:29:05;;;;;;;0.40;0.30;;;9.30;99.90;;;;;;5035137;28;20478;-47
2023/01/04 04:31:33;;;;;;;0.60;0.50;;;9.30;99.90;;;;;;5026569;28;20433;-46
2023/01/04 04:34:02;;;;;;;0.77;0.60;;;9.30;99.90;;;;;;5044097;28;20468;-47
2023/01/04 04:36:30;;;;;;;1.17;0.40;;;9.30;99.90;;;;;;5052241;28;20451;-47
2023/01/04 04:38:59;;;;;;;0.50;0.30;;;9.30;99.90;;;;;;5049596;28;20888;-47
2023/01/04 04:41:38;;;;;;;0.50;0.40;;;9.30;99.90;;;;;;5042963;28;20431;-47
2023/01/04 04:44:10;;;;;;;1.20;0.50;;;9.30;99.90;;;;;;5039674;28;20474;-47
2023/01/04 04:46:38;;;;;;;0.70;0.40;;;9.30;99.90;;;;;;5045224;28;20526;-46
2023/01/04 04:49:08;;;;;;;0.63;0.37;;;9.30;99.90;;;;;;5043741;28;20479;-46
2023/01/04 04:51:37;;;;;;;0.80;0.40;;;9.30;99.90;;;;;;5045618;28;20455;-47
2023/01/04 04:54:07;;;;;;;0.73;0.40;;;9.30;99.90;;;;;;5034601;28;20475;-46
2023/01/04 04:56:37;;;;;;;0.50;0.30;;;9.30;99.90;;;;;;5043019;28;20854;-48
2023/01/04 04:59:08;;;;;;;1.93;0.40;;;9.30;99.90;;;;;;5031627;28;20480;-47
2023/01/04 05:01:37;;;;;;;0.50;0.30;;;9.30;99.90;;;;;;5028371;28;20529;-46
2023/01/04 05:04:05;;;;;;;1.63;0.40;;;9.30;99.90;;;;;;5029666;28;20514;-46
2023/01/04 05:06:34;;;;;;;1.03;0.40;;;9.30;99.90;;;;;;5048723;28;20453;-47
2023/01/04 05:09:03;;;;;;;0.57;0.30;;;9.30;99.90;;;;;;5021438;28;20484;-46
2023/01/04 05:14:18;;;;;;;0.53;0.40;;;9.30;99.90;;;;;;5057482;28;20949;-46
2023/01/04 05:16:47;;;;;;;0.50;0.40;;;9.30;99.90;;;;;;5056394;28;20564;-47
2023/01/04 05:19:15;;;;;;;0.80;0.60;;;9.30;99.90;;;;;;5029058;28;20479;-46
2023/01/04 05:21:44;;;;;;;0.40;0.30;;;9.30;99.90;;;;;;5031637;28;20448;-46
2023/01/04 05:24:13;;;;;;;0.60;0.53;;;9.30;99.90;;;;;;5021332;28;20560;-46
2023/01/04 05:26:41;;;;;;;0.43;0.40;;;9.30;99.90;;;;;;5048784;28;20495;-46
2023/01/04 05:30:49;;;;;;;0.93;0.37;;;9.30;99.90;;;;;;5029779;28;20476;-45
2023/01/04 05:31:59;;;;;;;0.60;0.40;;;9.30;99.90;;;;;;5040736;28;20432;-47
2023/01/04 05:34:27;;;;;;;0.50;0.40;;;9.30;99.90;;;;;;5048739;28;20545;-47
2023/01/04 05:36:56;;;;;;;0.40;0.30;;;9.30;99.90;;;;;;5030653;28;20438;-47
2023/01/04 05:39:24;;;;;;;0.80;0.40;;;9.30;99.90;;;;;;5044597;28;20467;-45
2023/01/04 05:44:53;;;;;;;0.43;0.40;;;9.30;99.90;;;;;;4949384;28;20472;-46
2023/01/04 05:47:24;;;;;;;0.50;0.40;;;9.30;99.90;;;;;;4960321;28;20443;-47
2023/01/04 05:49:53;;;;;;;0.50;0.30;;;9.30;99.90;;;;;;4998271;28;20469;-46
2023/01/04 05:52:21;;;;;;;0.50;0.40;;;9.30;99.90;;;;;;5029851;28;20443;-47
2023/01/04 05:54:50;;;;;;;0.50;0.40;;;9.30;99.90;;;;;;5041740;28;20865;-46
2023/01/04 05:57:19;;;;;;;0.97;0.30;;;9.30;99.90;;;;;;5045871;28;20453;-46
2023/01/04 05:59:47;;;;;;;1.17;0.30;;;9.30;99.90;;;;;;5061588;28;20483;-47
2023/01/04 06:02:22;;;;;;;0.93;0.40;;;9.30;99.90;;;;;;5052919;28;20435;-47
2023/01/04 06:04:52;;;;;;;0.60;0.37;;;9.30;99.90;;;;;;5030609;28;20427;-48
2023/01/04 06:07:26;;;;;;;0.60;0.43;;;9.20;99.90;;;;;;5055968;28;20982;-47
2023/01/04 06:09:55;;;;;;;0.50;0.30;;;9.30;99.90;;;;;;5044407;28;20802;-46
2023/01/04 06:12:24;;;;;;;0.50;0.30;;;9.20;99.90;;;;;;5029480;28;20435;-46
2023/01/04 06:14:53;;;;;;;0.63;0.40;;;9.30;99.90;;;;;;5029114;28;20458;-47
2023/01/04 06:17:21;;;;;;;0.47;0.37;;;9.30;99.90;;;;;;5045573;28;21005;-47
2023/01/04 06:19:50;;;;;;;0.50;0.30;;;9.20;99.90;;;;;;5045729;28;20467;-47
2023/01/04 06:22:20;;;;;;;0.50;0.40;;;9.20;99.90;;;;;;5029168;28;20436;-46
2023/01/04 06:24:48;;;;;;;0.50;0.33;;;9.20;99.90;;;;;;5028545;28;20531;-46
2023/01/04 06:27:17;;;;;;;0.70;0.30;;;9.20;99.90;;;;;;5022426;28;20531;-48
2023/01/04 06:29:45;;;;;;;0.57;0.30;;;9.20;99.90;;;;;;5028446;28;20473;-46
2023/01/04 06:32:14;;;;;;;0.50;0.30;;;9.20;99.90;;;;;;5029080;28;20607;-47
2023/01/04 06:34:43;;;;;;;0.60;0.37;;;9.30;99.90;;;;;;5046499;28;20458;-47
2023/01/04 06:37:11;;;;;;;0.50;0.30;;;9.20;99.90;;;;;;5044374;28;20431;-47
2023/01/04 06:39:41;;;;;;;0.50;0.30;;;9.20;99.90;;;;;;5031375;28;20887;-47
2023/01/04 06:42:43;;;;;;;0.47;0.30;;;9.30;99.90;;;;;;5029144;28;20430;-47
2023/01/04 06:44:59;;;;;;;0.60;0.47;;;9.30;99.90;;;;;;5032415;28;20448;-47
2023/01/04 06:47:28;;;;;;;0.50;0.20;;;9.30;99.90;;;;;;5038645;28;20448;-45
2023/01/04 06:49:57;;;;;;;0.60;0.40;;;9.20;99.90;;;;;;5055727;28;20454;-46
2023/01/04 06:52:25;;;;;;;1.73;0.40;;;9.20;99.90;;;;;;5048136;28;20441;-48
2023/01/04 06:54:55;;;;;;;0.50;0.37;;;9.20;99.90;;;;;;5031919;28;20443;-47
2023/01/04 06:57:24;;;;;;;0.80;0.50;;;9.20;99.90;;;;;;5048861;28;20449;-47
2023/01/04 06:59:52;;;;;;;0.40;0.30;;;9.20;99.90;;;;;;5048736;28;20488;-46
2023/01/04 07:02:21;;;;;;;0.50;0.30;;;9.20;99.90;;;;;;5049501;28;20447;-46
2023/01/04 07:04:49;;;;;;;0.83;0.40;;;9.20;99.90;;;;;;5049559;28;20429;-46
2023/01/04 07:07:18;;;;;;;0.40;0.30;;;9.20;99.90;;;;;;5035030;28;20518;-46
2023/01/04 07:09:46;;;;;;;0.70;0.40;;;9.20;99.90;;;;;;5049232;28;20465;-47
2023/01/04 07:12:16;;;;;;;0.50;0.37;;;9.30;99.90;;;;;;5035051;28;20443;-47
2023/01/04 07:14:45;;;;;;;0.50;0.40;;;9.30;99.90;;;;;;5032833;28;20451;-47
2023/01/04 07:17:13;;;;;;;1.00;0.40;;;9.20;99.90;;;;;;5054133;28;20499;-48
2023/01/04 07:19:42;;;;;;;0.60;0.40;;;9.30;99.90;;;;;;5049650;28;20463;-47
2023/01/04 07:22:10;;;;;;;0.50;0.40;;;9.20;99.90;;;;;;5048316;28;20438;-47
2023/01/04 07:24:39;;;;;;;0.50;0.40;;;9.20;99.90;;;;;;5038065;28;20455;-47
2023/01/04 07:27:07;;;;;;;0.90;0.40;;;9.30;99.90;;;;;;5051046;28;20950;-46
2023/01/04 07:29:38;;;;;;;0.50;0.40;;;9.20;99.90;;;;;;5035727;28;20988;-47
2023/01/04 07:32:06;;;;;;;0.60;0.37;;;9.30;99.90;;;;;;5045774;28;20471;-45
2023/01/04 07:34:42;;;;;;;0.40;0.30;;;9.20;99.90;;;;;;5024201;28;20452;-48
2023/01/04 07:37:14;;;;;;;0.70;0.37;;;9.20;99.90;;;;;;5051033;28;20965;-46
2023/01/04 07:39:43;;;;;;;0.50;0.30;;;9.20;99.90;;;;;;5032660;28;20478;-46
2023/01/04 07:42:12;;;;;;;0.50;0.30;;;9.30;99.90;;;;;;5048814;28;20430;-46
2023/01/04 07:44:43;;;;;;;0.50;0.30;;;9.30;99.90;;;;;;5040508;28;20504;-45
2023/01/04 07:47:13;;;;;;;0.50;0.37;;;9.20;99.90;;;;;;5049449;28;20451;-46
2023/01/04 07:49:41;;;;;;;0.70;0.30;;;9.30;99.90;;;;;;5048247;28;20849;-46
2023/01/04 07:52:10;;;;;;;0.90;0.40;;;9.20;99.90;;;;;;5056815;28;20956;-46
2023/01/04 07:54:38;;;;;;;0.50;0.30;;;9.30;99.90;;;;;;5034764;28;21304;-47
2023/01/04 07:57:07;;;;;;;0.60;0.40;;;9.30;99.90;;;;;;5036615;28;21300;-46
2023/01/04 07:59:36;;;;;;;0.53;0.37;;;9.20;99.90;;;;;;5030895;28;20856;-46
2023/01/04 08:02:07;;;;;;;0.50;0.40;;;9.30;99.90;;;;;;5048071;28;20487;-46
2023/01/04 08:04:36;;;;;;;0.40;0.30;;;9.20;99.90;;;;;;5049430;28;20546;-46
2023/01/04 08:07:05;;;;;;;0.70;0.50;;;9.30;99.90;;;;;;5032214;28;20446;-46
2023/01/04 08:09:34;;;;;;;0.43;0.30;;;9.20;99.90;;;;;;5030742;28;20481;-46
2023/01/04 08:12:03;;;;;;;0.40;0.30;;;9.30;99.90;;;;;;5063669;28;20474;-45
2023/01/04 08:14:31;;;;;;;0.50;0.40;;;9.20;99.90;;;;;;5049046;28;20474;-46
2023/01/04 08:17:00;;;;;;;0.67;0.40;;;9.30;99.90;;;;;;5050613;28;20837;-46
2023/01/04 08:19:31;;;;;;;0.70;0.37;;;9.20;99.90;;;;;;5048860;28;20477;-47
2023/01/04 08:21:59;;;;;;;0.53;0.30;;;9.20;99.90;;;;;;5032134;28;20439;-46
2023/01/04 08:24:31;;;;;;;0.80;0.50;;;9.20;99.90;;;;;;5049250;28;20479;-46
2023/01/04 08:27:00;;;;;;;0.97;0.40;;;9.20;99.90;;;;;;5031748;28;20543;-47
2023/01/04 08:29:28;;;;;;;0.50;0.30;;;9.30;99.90;;;;;;5038811;28;20479;-47
2023/01/04 08:32:03;;;;;;;0.40;0.30;;;9.30;99.90;;;;;;5046255;28;21017;-46
2023/01/04 08:34:32;;;;;;;0.40;0.20;;;9.20;99.90;;;;;;5033578;28;20939;-47
2023/01/04 08:37:02;;;;;;;0.80;0.30;;;9.20;99.90;;;;;;5052756;28;20953;-46
2023/01/04 08:39:34;;;;;;;0.60;0.40;;;9.20;99.90;;;;;;5038373;28;20853;-46
2023/01/04 08:42:04;;;;;;;0.50;0.33;;;9.20;99.90;;;;;;5051285;28;20760;-46
2023/01/04 08:44:47;;;;;;;0.63;0.50;;;9.30;99.90;;;;;;5054674;28;20471;-46
2023/01/04 08:47:21;;;;;;;1.23;0.33;;;9.30;99.90;;;;;;5050839;28;20431;-46
2023/01/04 08:49:51;;;;;;;0.50;0.30;;;9.30;99.90;;;;;;5032723;28;20459;-47
2023/01/04 08:52:20;;;;;;;0.50;0.30;;;9.30;99.90;;;;;;5032120;28;20451;-47
2023/01/04 08:54:49;;;;;;;0.40;0.30;;;9.30;99.90;;;;;;5037467;28;20491;-46
2023/01/04 08:57:18;;;;;;;0.67;0.40;;;9.30;99.90;;;;;;5047250;28;21004;-47
2023/01/04 08:59:47;;;;;;;0.50;0.37;;;9.30;99.90;;;;;;5031057;28;20818;-46
2023/01/04 09:02:21;;;;;;;0.60;0.40;;;9.30;99.90;;;;;;5030374;28;20462;-45
2023/01/04 09:04:52;;;;;;;0.60;0.30;;;9.30;99.90;;;;;;5043640;28;20436;-47
2023/01/04 09:07:22;;;;;;;0.80;0.40;;;9.30;99.90;;;;;;5030028;28;20528;-46
2023/01/04 09:09:51;;;;;;;0.60;0.43;;;9.30;99.90;;;;;;5044775;28;20468;-46
2023/01/04 09:12:19;;;;;;;0.60;0.40;;;9.20;99.90;;;;;;5052019;28;20430;-46
2023/01/04 09:14:48;;;;;;;0.50;0.30;;;9.30;99.90;;;;;;5047618;28;20443;-45
2023/01/04 09:17:16;;;;;;;0.50;0.33;;;9.30;99.90;;;;;;5031823;28;20507;-46
2023/01/04 09:19:45;;;;;;;0.50;0.30;;;9.30;99.90;;;;;;5036162;28;20530;-47
2023/01/04 09:22:15;;;;;;;0.43;0.30;;;9.30;99.90;;;;;;5031996;28;20798;-46
2023/01/04 09:24:44;;;;;;;1.97;0.43;;;9.30;99.90;;;;;;5046709;28;20505;-46
2023/01/04 09:27:12;;;;;;;0.50;0.40;;;9.30;99.90;;;;;;5035187;28;20435;-47
2023/01/04 09:29:41;;;;;;;0.50;0.30;;;9.30;99.90;;;;;;5045005;28;20530;-46
2023/01/04 09:32:10;;;;;;;0.50;0.40;;;9.30;99.90;;;;;;5030804;28;20467;-47
2023/01/04 09:34:44;;;;;;;0.50;0.30;;;9.30;99.90;;;;;;5037420;28;20509;-46
2023/01/04 09:37:15;;;;;;;1.43;0.70;;;9.30;99.90;;;;;;5029300;28;20445;-46
2023/01/04 09:39:44;;;;;;;0.50;0.30;;;9.30;99.90;;;;;;5033965;28;20467;-47
2023/01/04 09:42:20;;;;;;;1.90;0.43;;;9.30;99.90;;;;;;5045949;28;20475;-48
2023/01/04 09:44:51;;;;;;;0.50;0.30;;;9.30;99.90;;;;;;5044712;28;20503;-46
2023/01/04 09:47:45;;;;;;;0.60;0.40;;;9.30;99.90;;;;;;5042246;28;21045;-45
2023/01/04 09:50:18;;;;;;;0.70;0.40;;;9.30;99.90;;;;;;5033229;28;20794;-46
2023/01/04 09:53:02;;;;;;;0.60;0.40;;;9.30;99.90;;;;;;5061567;28;21011;-46
2023/01/04 09:55:34;;;;;;;0.50;0.30;;;9.30;99.90;;;;;;5046622;28;20585;-46
2023/01/04 09:58:25;;;;;;;0.70;0.40;;;9.30;99.90;;;;;;5041773;28;20458;-45
2023/01/04 10:01:01;;;;;;;1.40;0.30;;;9.30;99.90;;;;;;5041033;28;20479;-46
2023/01/04 10:03:32;;;;;;;1.10;0.40;;;9.30;99.90;;;;;;5032612;28;20525;-47
2023/01/04 10:06:02;;;;;;;0.50;0.30;;;9.30;99.90;;;;;;5029885;28;20859;-45
2023/01/04 10:08:33;;;;;;;0.70;0.30;;;9.30;99.90;;;;;;5050959;28;20558;-45
2023/01/04 10:11:15;;;;;;;0.50;0.30;;;9.30;99.90;;;;;;5044413;28;20424;-46
2023/01/04 10:13:58;;;;;;;1.03;0.40;;;9.30;99.90;;;;;;5041350;28;20459;-47
2023/01/04 10:16:40;;;;;;;0.70;0.40;;;9.30;99.90;;;;;;5058454;28;20462;-45
2023/01/04 10:19:44;;;;;;;0.40;0.30;;;9.30;99.90;;;;;;5029107;28;20914;-47
2023/01/04 10:22:41;;;;;;;0.50;0.30;;;9.30;99.90;;;;;;5045309;28;20471;-46
2023/01/04 10:25:24;;;;;;;0.60;0.30;;;9.30;99.90;;;;;;5039310;28;20849;-46
2023/01/04 10:28:04;;;;;;;0.50;0.40;;;9.30;99.90;;;;;;5037538;28;21226;-46
2023/01/04 10:30:39;;;;;;;0.50;0.30;;;9.30;99.90;;;;;;5043743;28;20535;-46
2023/01/04 10:33:13;;;;;;;0.40;0.30;;;9.30;99.90;;;;;;5031461;28;20945;-45
2023/01/04 10:35:44;;;;;;;2.10;0.40;;;9.30;99.90;;;;;;5041772;28;20526;-46
2023/01/04 10:38:17;;;;;;;0.47;0.33;;;9.30;99.90;;;;;;5045825;28;20474;-47
2023/01/04 10:40:49;;;;;;;0.60;0.40;;;9.30;99.90;;;;;;5045821;28;20468;-46
2023/01/04 10:43:27;;;;;;;1.73;0.40;;;9.30;99.90;;;;;;5045397;28;20448;-46
2023/01/04 10:46:06;;;;;;;0.57;0.33;;;9.30;99.90;;;;;;5045726;28;20831;-46
2023/01/04 10:48:43;;;;;;;1.00;0.50;;;9.30;99.90;;;;;;5048941;28;20514;-46
2023/01/04 10:51:15;;;;;;;0.50;0.30;;;9.30;99.90;;;;;;5031158;28;21031;-45
2023/01/04 10:53:48;;;;;;;0.60;0.40;;;9.30;99.90;;;;;;5035344;28;20475;-46
2023/01/04 10:56:24;;;;;;;0.90;0.40;;;9.30;99.90;;;;;;5028669;28;20450;-46
2023/01/04 10:59:03;;;;;;;0.50;0.30;;;9.30;99.90;;;;;;5050631;28;20478;-47
2023/01/04 11:01:37;;;;;;;0.50;0.30;;;9.30;99.90;;;;;;5044305;28;21048;-48
2023/01/04 11:04:13;;;;;;;0.50;0.43;;;9.30;99.90;;;;;;5029548;28;20483;-47
2023/01/04 11:06:46;;;;;;;0.80;0.50;;;9.30;99.90;;;;;;5026460;28;20490;-46
2023/01/04 11:09:19;;;;;;;0.77;0.30;;;9.30;99.90;;;;;;5024066;28;20856;-46
2023/01/04 11:11:57;;;;;;;0.60;0.40;;;9.30;99.90;;;;;;5047787;28;20439;-47
2023/01/04 11:14:26;;;;;;;0.67;0.50;;;9.30;99.90;;;;;;5044900;28;20884;-45
2023/01/04 11:17:07;;;;;;;0.60;0.40;;;9.30;99.90;;;;;;5042464;28;20478;-47
2023/01/04 11:19:36;;;;;;;1.27;0.40;;;9.30;99.90;;;;;;5028579;28;20550;-46
2023/01/04 11:22:14;;;;;;;0.87;0.33;;;9.30;99.90;;;;;;5029521;28;20467;-45
2023/01/04 11:24:45;;;;;;;0.70;0.45;;;9.30;99.90;;;;;;5011124;28;20483;-44
2023/01/04 11:27:44;;;;;;;0.70;0.43;;;9.30;99.90;;;;;;5028665;28;20293;-47
2023/01/04 11:30:18;;;;;;;1.43;0.60;;;9.40;99.90;;;;;;5059067;28;20510;-46
2023/01/04 11:32:54;;;;;;;0.60;0.40;;;9.40;99.90;;;;;;5046058;28;20476;-45
2023/01/04 11:35:43;;;;;;;0.97;0.50;;;9.40;99.90;;;;;;5031630;28;20438;-46
2023/01/04 11:38:15;;;;;;;0.50;0.40;;;9.40;99.90;;;;;;5060781;28;20465;-46
2023/01/04 11:40:56;;;;;;;0.50;0.37;;;9.40;99.90;;;;;;5051525;28;21032;-46
2023/01/04 11:43:27;;;;;;;0.50;0.40;;;9.40;99.90;;;;;;5046147;28;20520;-46
2023/01/04 11:46:02;;;;;;;0.50;0.33;;;9.50;99.90;;;;;;5047182;28;20441;-46
2023/01/04 11:48:37;;;;;;;0.50;0.40;;;9.40;99.90;;;;;;5030866;28;20479;-44
2023/01/04 11:51:16;;;;;;;0.53;0.40;;;9.50;99.90;;;;;;5050942;28;21002;-47
2023/01/04 11:53:45;;;;;;;0.97;0.50;;;9.40;99.90;;;;;;5030561;28;20506;-45
2023/01/04 11:56:20;;;;;;;1.27;0.90;;;9.40;99.90;;;;;;5032959;28;20444;-45
2023/01/04 11:59:12;;;;;;;0.60;0.30;;;9.40;99.90;;;;;;5061804;28;20566;-46
2023/01/04 12:01:50;;;;;;;0.50;0.30;;;9.40;99.90;;;;;;5063551;28;20997;-45
2023/01/04 12:04:22;;;;;;;0.60;0.40;;;9.40;99.90;;;;;;5051670;28;20475;-46
2023/01/04 12:06:55;;;;;;;0.60;0.40;;;9.40;99.90;;;;;;5065044;28;20441;-46
2023/01/04 12:09:30;;;;;;;1.13;0.50;;;9.40;99.90;;;;;;5047760;28;20478;-46
2023/01/04 12:12:00;;;;;;;0.50;0.33;;;9.40;99.90;;;;;;5050506;28;20458;-45
2023/01/04 12:14:34;;;;;;;0.70;0.40;;;9.40;99.90;;;;;;5044074;28;20499;-46
2023/01/04 12:17:07;;;;;;;1.07;0.40;;;9.40;99.90;;;;;;5033707;28;20444;-46
2023/01/04 12:19:37;;;;;;;0.40;0.30;;;9.40;99.90;;;;;;5032989;28;20879;-46
2023/01/04 12:22:17;;;;;;;0.53;0.30;;;9.40;99.90;;;;;;5055299;28;20454;-46
2023/01/04 12:24:47;;;;;;;0.50;0.30;;;9.40;99.90;;;;;;5050809;28;20803;-46
2023/01/04 12:27:17;;;;;;;0.60;0.40;;;9.40;99.90;;;;;;5049913;28;20444;-45
2023/01/04 12:29:57;;;;;;;0.63;0.50;;;9.40;99.90;;;;;;5031714;28;20467;-47
2023/01/04 12:32:45;;;;;;;0.40;0.30;;;9.40;99.90;;;;;;5061433;28;20528;-46
2023/01/04 12:36:06;;;;;;;0.60;0.40;;;9.40;99.90;;;;;;5034606;28;20469;-47
2023/01/04 12:39:28;;;;;;;0.60;0.30;;;9.40;99.90;;;;;;5003926;28;20846;-47
2023/01/04 12:42:16;;;;;;;0.50;0.40;;;9.40;99.90;;;;;;5017433;28;20470;-46
2023/01/04 12:45:18;;;;;;;0.50;0.30;;;9.40;99.90;;;;;;5038851;28;20624;-46
2023/01/04 12:51:21;;;;;;;0.63;0.30;;;9.40;99.90;;;;;;5061561;28;20538;-45
2023/01/04 12:54:01;;;;;;;0.77;0.50;;;9.40;99.90;;;;;;5061261;28;20483;-45
2023/01/04 12:57:07;;;;;;;0.57;0.30;;;9.40;99.90;;;;;;5049908;28;20557;-46
2023/01/04 12:59:38;;;;;;;0.40;0.30;;;9.40;99.90;;;;;;5046913;28;20460;-48
2023/01/04 13:02:18;;;;;;;0.50;0.30;;;9.40;99.90;;;;;;5053279;28;20518;-45
2023/01/04 13:04:49;;;;;;;0.67;0.47;;;9.40;99.90;;;;;;5052098;28;20459;-45
2023/01/04 13:07:43;;;;;;;0.87;0.57;;;9.40;99.90;;;;;;5049878;28;20960;-45
2023/01/04 13:10:31;;;;;;;0.63;0.40;;;9.40;99.90;;;;;;5047712;28;21024;-46
2023/01/04 13:13:22;;;;;;;0.50;0.40;;;9.40;99.90;;;;;;5042633;28;20555;-45
2023/01/04 13:16:01;;;;;;;0.60;0.40;;;9.40;99.90;;;;;;5041221;28;20443;-46
2023/01/04 13:18:37;;;;;;;1.37;0.30;;;9.50;99.90;;;;;;5055171;28;20471;-46
2023/01/04 13:21:12;;;;;;;0.60;0.30;;;9.50;99.90;;;;;;5051018;28;20443;-45
2023/01/04 13:23:46;;;;;;;0.53;0.40;;;9.40;99.90;;;;;;5039467;28;20482;-46
2023/01/04 13:26:29;;;;;;;0.70;0.40;;;9.50;99.90;;;;;;5030508;28;20454;-47
2023/01/04 13:29:14;;;;;;;0.57;0.30;;;9.50;99.90;;;;;;5031977;28;20842;-46
2023/01/04 13:31:51;;;;;;;0.60;0.40;;;9.50;99.90;;;;;;5060549;28;20440;-46
2023/01/04 13:34:24;;;;;;;0.50;0.30;;;9.50;99.90;;;;;;5034791;28;20572;-46
2023/01/04 13:37:08;;;;;;;1.00;0.40;;;9.50;99.90;;;;;;5060742;28;20427;-46
2023/01/04 13:39:41;;;;;;;0.50;0.30;;;9.50;99.90;;;;;;5046645;28;20988;-46
2023/01/04 13:42:18;;;;;;;0.60;0.40;;;9.50;99.90;;;;;;5047720;28;20448;-45
2023/01/04 13:45:21;;;;;;;0.70;0.30;;;9.50;99.90;;;;;;5032673;28;20471;-46
2023/01/04 13:47:57;;;;;;;0.40;0.30;;;9.50;99.90;;;;;;5045225;28;20436;-45
2023/01/04 13:50:32;;;;;;;0.60;0.30;;;9.50;99.90;;;;;;5046311;28;20501;-46
2023/01/04 13:53:01;;;;;;;0.50;0.37;;;9.50;99.90;;;;;;5027738;28;21016;-45
2023/01/04 13:55:37;;;;;;;0.47;0.30;;;9.50;99.90;;;;;;5038409;28;20439;-45
2023/01/04 13:58:16;;;;;;;0.40;0.37;;;9.50;99.90;;;;;;5032899;28;20458;-47
2023/01/04 14:00:46;;;;;;;0.70;0.40;;;9.50;99.90;;;;;;5033324;28;20903;-45
2023/01/04 14:03:27;;;;;;;1.03;0.40;;;9.50;99.90;;;;;;5059658;28;20513;-47
2023/01/04 14:06:12;;;;;;;0.47;0.37;;;9.50;99.90;;;;;;5048475;28;20958;-46
2023/01/04 14:08:44;;;;;;;0.97;0.60;;;9.50;99.90;;;;;;5040967;28;20474;-47
2023/01/04 14:11:57;;;;;;;0.50;0.40;;;9.50;99.90;;;;;;5035049;28;20531;-47
2023/01/04 14:14:29;;;;;;;0.70;0.30;;;9.50;99.90;;;;;;5031567;28;21220;-46
2023/01/04 14:17:20;;;;;;;0.47;0.33;;;9.50;99.90;;;;;;5047231;28;20484;-45
2023/01/04 14:19:51;;;;;;;0.40;0.30;;;9.50;99.90;;;;;;5028312;28;20530;-47
2023/01/04 14:22:40;;;;;;;0.40;0.30;;;9.50;99.90;;;;;;5029705;28;20443;-46
2023/01/04 14:25:35;;;;;;;0.50;0.30;;;9.50;99.90;;;;;;5031293;28;20447;-46